WARNING - Change wsUserSettings.php: $SITE["topfolder"] from : public_html./ to: ./


Webcam zuid Meer informatie Webcam zuid


Webcam noord Meer informatie Webcam noord


Onweer radar Meer informatie blitzortung!


Regen radar Meer informatie rain snow radar


Bezoek onze andere website:

Template documentation
and downloads

Onze andere website


U vindt ons ook hier:

Het Weer Aktueel

UK Metoffice

European Weather Network

WeatherCloud

Weather Underground

Austria Weather Network

AWEKAS

Citizen Weather Observer Program (CWOP)

HAMweather, WeatherForYou, PWS Weather

Wetterpage 24

Roosendaal op internet

VWKWEB

RadioZuidWestFM



We konden geen weer-waarchuwingen ophalen. Ga rechtstreeks naar de Meteoalarm site : www.meteoalarm.eu en controleer daar .

METAR rapporten vliegvelden

   
EHWO - Bergen op Zoom
Gewijzigd: 29-07-2021 11:55
Wat regen mogelijk, Grotendeels bewolkt  
Wat regen mogelijk, Grotendeels bewolkt  
   Wind: WZW 29.6 km/h
Wind: WZW 29.6 km/h
Temperatuur: 16°C
Dauwpunt: 12°C
Vochtigheid: 77%
Barometer: 1011 hPa
Bewolking: Grotendeels bewolkt
Zicht: meer dan 10 km
Bewolking: Licht bewolkt 1500 ft,
Gedeeltelijk bewolkt 2800 ft,
Grotendeels bewolkt 3200 ft
EHWO 290955Z AUTO 24016KT 200V270 9999 -RA FEW015CB SCT028 BKN032 16/12 Q1011 BLU TEMPO 24015G25KT 4000 SHRA SCT017CB SCT022
EHWO - Woensdrecht
Gewijzigd: 29-07-2021 11:55
Wat regen mogelijk, Grotendeels bewolkt  
Wat regen mogelijk, Grotendeels bewolkt  
   Wind: WZW 29.6 km/h
Wind: WZW 29.6 km/h
Temperatuur: 16°C
Dauwpunt: 12°C
Vochtigheid: 77%
Barometer: 1011 hPa
Bewolking: Grotendeels bewolkt
Zicht: meer dan 10 km
Bewolking: Licht bewolkt 1500 ft,
Gedeeltelijk bewolkt 2800 ft,
Grotendeels bewolkt 3200 ft
EHWO 290955Z AUTO 24016KT 200V270 9999 -RA FEW015CB SCT028 BKN032 16/12 Q1011 BLU TEMPO 24015G25KT 4000 SHRA SCT017CB SCT022
EHWO - Steenbergen
Gewijzigd: 29-07-2021 11:55
Wat regen mogelijk, Grotendeels bewolkt  
Wat regen mogelijk, Grotendeels bewolkt  
   Wind: WZW 29.6 km/h
Wind: WZW 29.6 km/h
Temperatuur: 16°C
Dauwpunt: 12°C
Vochtigheid: 77%
Barometer: 1011 hPa
Bewolking: Grotendeels bewolkt
Zicht: meer dan 10 km
Bewolking: Licht bewolkt 1500 ft,
Gedeeltelijk bewolkt 2800 ft,
Grotendeels bewolkt 3200 ft
EHWO 290955Z AUTO 24016KT 200V270 9999 -RA FEW015CB SCT028 BKN032 16/12 Q1011 BLU TEMPO 24015G25KT 4000 SHRA SCT017CB SCT022
EHWO - Oud-Gastel
Gewijzigd: 29-07-2021 11:55
Wat regen mogelijk, Grotendeels bewolkt  
Wat regen mogelijk, Grotendeels bewolkt  
   Wind: WZW 29.6 km/h
Wind: WZW 29.6 km/h
Temperatuur: 16°C
Dauwpunt: 12°C
Vochtigheid: 77%
Barometer: 1011 hPa
Bewolking: Grotendeels bewolkt
Zicht: meer dan 10 km
Bewolking: Licht bewolkt 1500 ft,
Gedeeltelijk bewolkt 2800 ft,
Grotendeels bewolkt 3200 ft
EHWO 290955Z AUTO 24016KT 200V270 9999 -RA FEW015CB SCT028 BKN032 16/12 Q1011 BLU TEMPO 24015G25KT 4000 SHRA SCT017CB SCT022
EHWO - Oudenbosch
Gewijzigd: 29-07-2021 11:55
Wat regen mogelijk, Grotendeels bewolkt  
Wat regen mogelijk, Grotendeels bewolkt  
   Wind: WZW 29.6 km/h
Wind: WZW 29.6 km/h
Temperatuur: 16°C
Dauwpunt: 12°C
Vochtigheid: 77%
Barometer: 1011 hPa
Bewolking: Grotendeels bewolkt
Zicht: meer dan 10 km
Bewolking: Licht bewolkt 1500 ft,
Gedeeltelijk bewolkt 2800 ft,
Grotendeels bewolkt 3200 ft
EHWO 290955Z AUTO 24016KT 200V270 9999 -RA FEW015CB SCT028 BKN032 16/12 Q1011 BLU TEMPO 24015G25KT 4000 SHRA SCT017CB SCT022
EHWO - Rucphen
Gewijzigd: 29-07-2021 11:55
Wat regen mogelijk, Grotendeels bewolkt  
Wat regen mogelijk, Grotendeels bewolkt  
   Wind: WZW 29.6 km/h
Wind: WZW 29.6 km/h
Temperatuur: 16°C
Dauwpunt: 12°C
Vochtigheid: 77%
Barometer: 1011 hPa
Bewolking: Grotendeels bewolkt
Zicht: meer dan 10 km
Bewolking: Licht bewolkt 1500 ft,
Gedeeltelijk bewolkt 2800 ft,
Grotendeels bewolkt 3200 ft
EHWO 290955Z AUTO 24016KT 200V270 9999 -RA FEW015CB SCT028 BKN032 16/12 Q1011 BLU TEMPO 24015G25KT 4000 SHRA SCT017CB SCT022
EHWO - Bergen op Zoom
Gewijzigd: 29-07-2021 11:55
Wat regen mogelijk, Grotendeels bewolkt  
Wat regen mogelijk, Grotendeels bewolkt  
   Wind: WZW 29.6 km/h
Wind: WZW 29.6 km/h
Temperatuur: 16°C
Dauwpunt: 12°C
Vochtigheid: 77%
Barometer: 1011 hPa
Bewolking: Grotendeels bewolkt
Zicht: meer dan 10 km
Bewolking: Licht bewolkt 1500 ft,
Gedeeltelijk bewolkt 2800 ft,
Grotendeels bewolkt 3200 ft
EHWO 290955Z AUTO 24016KT 200V270 9999 -RA FEW015CB SCT028 BKN032 16/12 Q1011 BLU TEMPO 24015G25KT 4000 SHRA SCT017CB SCT022
EHWO - Fijnaart
Gewijzigd: 29-07-2021 11:55
Wat regen mogelijk, Grotendeels bewolkt  
Wat regen mogelijk, Grotendeels bewolkt  
   Wind: WZW 29.6 km/h
Wind: WZW 29.6 km/h
Temperatuur: 16°C
Dauwpunt: 12°C
Vochtigheid: 77%
Barometer: 1011 hPa
Bewolking: Grotendeels bewolkt
Zicht: meer dan 10 km
Bewolking: Licht bewolkt 1500 ft,
Gedeeltelijk bewolkt 2800 ft,
Grotendeels bewolkt 3200 ft
EHWO 290955Z AUTO 24016KT 200V270 9999 -RA FEW015CB SCT028 BKN032 16/12 Q1011 BLU TEMPO 24015G25KT 4000 SHRA SCT017CB SCT022
EHWO - Ossendrecht
Gewijzigd: 29-07-2021 11:55
Wat regen mogelijk, Grotendeels bewolkt  
Wat regen mogelijk, Grotendeels bewolkt  
   Wind: WZW 29.6 km/h
Wind: WZW 29.6 km/h
Temperatuur: 16°C
Dauwpunt: 12°C
Vochtigheid: 77%
Barometer: 1011 hPa
Bewolking: Grotendeels bewolkt
Zicht: meer dan 10 km
Bewolking: Licht bewolkt 1500 ft,
Gedeeltelijk bewolkt 2800 ft,
Grotendeels bewolkt 3200 ft
EHWO 290955Z AUTO 24016KT 200V270 9999 -RA FEW015CB SCT028 BKN032 16/12 Q1011 BLU TEMPO 24015G25KT 4000 SHRA SCT017CB SCT022

Script ontwikkeld door  Saratoga-weather.org Aangepast voor de template door  Weerstation Leuven

Apparatuur in gebruik:

Weerstation
Davis VP2

Weerprogramma
Meteobridge

Weercomputer
Shuttle

Webleverancier
WeservIT

Davis VP2

Meteobridge

Shuttle

WeservIT